sensor_id;sensor_type;location;lat;lon;timestamp;temperature;humidity
22676;DHT22;12521;43.310;21.876;2022-09-11T00:01:42;18.6;96.0
22676;DHT22;12521;43.310;21.876;2022-09-11T00:06:20;18.6;96.0
22676;DHT22;12521;43.310;21.876;2022-09-11T00:11:06;18.5;96.0
22676;DHT22;12521;43.310;21.876;2022-09-11T00:15:51;18.5;96.0
22676;DHT22;12521;43.310;21.876;2022-09-11T00:20:28;18.4;96.0
22676;DHT22;12521;43.310;21.876;2022-09-11T00:25:06;18.4;96.0
22676;DHT22;12521;43.310;21.876;2022-09-11T00:29:44;18.2;96.0
22676;DHT22;12521;43.310;21.876;2022-09-11T00:34:20;18.2;96.0
22676;DHT22;12521;43.310;21.876;2022-09-11T00:38:58;18.1;96.0
22676;DHT22;12521;43.310;21.876;2022-09-11T00:45:03;18.1;96.0
22676;DHT22;12521;43.310;21.876;2022-09-11T00:49:53;18.0;96.0
22676;DHT22;12521;43.310;21.876;2022-09-11T00:54:54;18.0;96.0
22676;DHT22;12521;43.310;21.876;2022-09-11T00:59:46;17.9;96.0
22676;DHT22;12521;43.310;21.876;2022-09-11T01:04:27;17.9;96.0
22676;DHT22;12521;43.310;21.876;2022-09-11T01:09:04;17.8;96.0
22676;DHT22;12521;43.310;21.876;2022-09-11T01:14:05;17.8;96.0
22676;DHT22;12521;43.310;21.876;2022-09-11T01:20:02;17.8;96.0
22676;DHT22;12521;43.310;21.876;2022-09-11T01:25:39;17.8;96.0
22676;DHT22;12521;43.310;21.876;2022-09-11T01:31:03;17.7;96.0
22676;DHT22;12521;43.310;21.876;2022-09-11T01:36:02;17.7;96.0
22676;DHT22;12521;43.310;21.876;2022-09-11T01:40:57;17.6;96.0
22676;DHT22;12521;43.310;21.876;2022-09-11T01:45:49;17.6;96.0
22676;DHT22;12521;43.310;21.876;2022-09-11T01:50:33;17.6;96.0
22676;DHT22;12521;43.310;21.876;2022-09-11T01:55:32;17.6;96.0
22676;DHT22;12521;43.310;21.876;2022-09-11T02:00:23;17.5;96.0
22676;DHT22;12521;43.310;21.876;2022-09-11T02:05:15;17.5;96.0
22676;DHT22;12521;43.310;21.876;2022-09-11T02:10:35;17.4;96.0
22676;DHT22;12521;43.310;21.876;2022-09-11T02:15:55;17.4;96.0
22676;DHT22;12521;43.310;21.876;2022-09-11T02:21:07;17.4;96.0
22676;DHT22;12521;43.310;21.876;2022-09-11T02:25:46;17.4;96.0
22676;DHT22;12521;43.310;21.876;2022-09-11T02:30:24;17.3;96.0
22676;DHT22;12521;43.310;21.876;2022-09-11T02:35:03;17.3;96.0
22676;DHT22;12521;43.310;21.876;2022-09-11T02:40:18;17.2;96.0
22676;DHT22;12521;43.310;21.876;2022-09-11T02:46:08;17.2;96.0
22676;DHT22;12521;43.310;21.876;2022-09-11T02:52:03;17.2;96.0
22676;DHT22;12521;43.310;21.876;2022-09-11T02:57:30;17.2;96.0
22676;DHT22;12521;43.310;21.876;2022-09-11T03:02:24;17.2;96.0
22676;DHT22;12521;43.310;21.876;2022-09-11T03:07:05;17.2;96.0
22676;DHT22;12521;43.310;21.876;2022-09-11T03:11:44;17.3;96.0
22676;DHT22;12521;43.310;21.876;2022-09-11T03:16:20;17.3;96.0
22676;DHT22;12521;43.310;21.876;2022-09-11T03:20:57;17.4;96.0
22676;DHT22;12521;43.310;21.876;2022-09-11T03:25:33;17.4;96.0
22676;DHT22;12521;43.310;21.876;2022-09-11T03:30:11;17.5;96.0
22676;DHT22;12521;43.310;21.876;2022-09-11T03:34:49;17.5;96.0
22676;DHT22;12521;43.310;21.876;2022-09-11T03:39:25;17.4;96.0
22676;DHT22;12521;43.310;21.876;2022-09-11T03:44:03;17.4;96.0
22676;DHT22;12521;43.310;21.876;2022-09-11T03:48:39;17.4;96.0
22676;DHT22;12521;43.310;21.876;2022-09-11T03:53:16;17.4;96.0
22676;DHT22;12521;43.310;21.876;2022-09-11T03:57:54;17.4;96.0
22676;DHT22;12521;43.310;21.876;2022-09-11T04:02:31;17.4;96.0
22676;DHT22;12521;43.310;21.876;2022-09-11T04:07:07;17.4;96.0
22676;DHT22;12521;43.310;21.876;2022-09-11T04:11:44;17.3;96.0
22676;DHT22;12521;43.310;21.876;2022-09-11T04:16:20;17.3;96.0
22676;DHT22;12521;43.310;21.876;2022-09-11T04:20:57;17.4;96.0
22676;DHT22;12521;43.310;21.876;2022-09-11T04:25:34;17.4;96.0
22676;DHT22;12521;43.310;21.876;2022-09-11T04:30:12;17.4;96.0
22676;DHT22;12521;43.310;21.876;2022-09-11T04:34:49;17.4;96.0
22676;DHT22;12521;43.310;21.876;2022-09-11T04:39:25;17.4;96.0
22676;DHT22;12521;43.310;21.876;2022-09-11T04:44:03;17.4;96.0
22676;DHT22;12521;43.310;21.876;2022-09-11T04:48:44;17.5;96.0
22676;DHT22;12521;43.310;21.876;2022-09-11T04:53:27;17.5;96.0
22676;DHT22;12521;43.310;21.876;2022-09-11T04:58:05;17.5;96.0
22676;DHT22;12521;43.310;21.876;2022-09-11T05:02:41;17.5;96.0
22676;DHT22;12521;43.310;21.876;2022-09-11T05:07:18;17.5;96.0
22676;DHT22;12521;43.310;21.876;2022-09-11T05:21:19;17.8;96.0
22676;DHT22;12521;43.310;21.876;2022-09-11T05:26:04;17.8;96.0
22676;DHT22;12521;43.310;21.876;2022-09-11T05:30:41;17.8;96.0
22676;DHT22;12521;43.310;21.876;2022-09-11T05:35:18;17.8;96.0
22676;DHT22;12521;43.310;21.876;2022-09-11T05:39:54;17.8;96.0
22676;DHT22;12521;43.310;21.876;2022-09-11T05:44:31;17.8;96.0
22676;DHT22;12521;43.310;21.876;2022-09-11T05:49:07;17.8;96.0
22676;DHT22;12521;43.310;21.876;2022-09-11T05:53:45;17.8;96.0
22676;DHT22;12521;43.310;21.876;2022-09-11T05:58:21;17.7;96.0
22676;DHT22;12521;43.310;21.876;2022-09-11T06:02:58;17.7;96.0
22676;DHT22;12521;43.310;21.876;2022-09-11T06:07:34;17.7;96.0
22676;DHT22;12521;43.310;21.876;2022-09-11T06:12:11;17.6;96.0
22676;DHT22;12521;43.310;21.876;2022-09-11T06:16:47;17.6;96.0
22676;DHT22;12521;43.310;21.876;2022-09-11T06:21:25;17.7;96.0
22676;DHT22;12521;43.310;21.876;2022-09-11T06:26:08;17.7;96.0
22676;DHT22;12521;43.310;21.876;2022-09-11T06:30:50;17.8;96.0
22676;DHT22;12521;43.310;21.876;2022-09-11T06:35:28;17.8;96.0
22676;DHT22;12521;43.310;21.876;2022-09-11T06:40:07;17.9;96.0
22676;DHT22;12521;43.310;21.876;2022-09-11T06:44:45;17.9;96.0
22676;DHT22;12521;43.310;21.876;2022-09-11T06:49:22;18.0;96.0
22676;DHT22;12521;43.310;21.876;2022-09-11T06:53:59;18.0;96.0
22676;DHT22;12521;43.310;21.876;2022-09-11T06:58:36;18.2;96.0
22676;DHT22;12521;43.310;21.876;2022-09-11T07:03:12;18.2;96.0
22676;DHT22;12521;43.310;21.876;2022-09-11T07:07:52;18.5;96.0
22676;DHT22;12521;43.310;21.876;2022-09-11T07:12:30;18.5;96.0
22676;DHT22;12521;43.310;21.876;2022-09-11T07:17:07;18.5;96.0
22676;DHT22;12521;43.310;21.876;2022-09-11T07:21:44;18.6;96.0
22676;DHT22;12521;43.310;21.876;2022-09-11T07:26:27;18.6;96.0
22676;DHT22;12521;43.310;21.876;2022-09-11T07:31:13;18.6;96.0
22676;DHT22;12521;43.310;21.876;2022-09-11T07:35:59;18.6;96.0
22676;DHT22;12521;43.310;21.876;2022-09-11T07:40:40;18.7;96.0
22676;DHT22;12521;43.310;21.876;2022-09-11T07:45:17;18.7;96.0
22676;DHT22;12521;43.310;21.876;2022-09-11T07:49:55;18.8;96.0
22676;DHT22;12521;43.310;21.876;2022-09-11T07:54:32;18.8;96.0
22676;DHT22;12521;43.310;21.876;2022-09-11T07:59:09;19.0;96.0
22676;DHT22;12521;43.310;21.876;2022-09-11T08:03:52;19.0;96.0
22676;DHT22;12521;43.310;21.876;2022-09-11T08:08:36;19.3;96.0
22676;DHT22;12521;43.310;21.876;2022-09-11T08:13:13;19.3;96.0
22676;DHT22;12521;43.310;21.876;2022-09-11T08:17:49;19.8;96.0
22676;DHT22;12521;43.310;21.876;2022-09-11T08:22:26;19.8;96.0
22676;DHT22;12521;43.310;21.876;2022-09-11T08:27:03;19.8;96.0
22676;DHT22;12521;43.310;21.876;2022-09-11T08:31:40;20.2;96.0
22676;DHT22;12521;43.310;21.876;2022-09-11T08:36:17;20.2;96.0
22676;DHT22;12521;43.310;21.876;2022-09-11T08:41:10;20.5;96.0
22676;DHT22;12521;43.310;21.876;2022-09-11T08:46:09;20.5;96.0
22676;DHT22;12521;43.310;21.876;2022-09-11T08:50:47;20.9;96.0
22676;DHT22;12521;43.310;21.876;2022-09-11T08:55:42;20.9;96.0
22676;DHT22;12521;43.310;21.876;2022-09-11T09:00:46;21.0;96.0
22676;DHT22;12521;43.310;21.876;2022-09-11T09:05:54;21.0;96.0
22676;DHT22;12521;43.310;21.876;2022-09-11T09:11:02;21.1;96.0
22676;DHT22;12521;43.310;21.876;2022-09-11T09:16:43;21.1;96.0
22676;DHT22;12521;43.310;21.876;2022-09-11T09:21:56;21.4;96.0
22676;DHT22;12521;43.310;21.876;2022-09-11T09:26:55;21.4;96.0
22676;DHT22;12521;43.310;21.876;2022-09-11T09:31:33;21.6;96.0
22676;DHT22;12521;43.310;21.876;2022-09-11T09:36:22;21.6;96.0
22676;DHT22;12521;43.310;21.876;2022-09-11T09:41:58;22.0;96.0
22676;DHT22;12521;43.310;21.876;2022-09-11T09:46:54;22.0;96.0
22676;DHT22;12521;43.310;21.876;2022-09-11T09:51:31;22.3;96.0
22676;DHT22;12521;43.310;21.876;2022-09-11T09:56:18;22.3;96.0
22676;DHT22;12521;43.310;21.876;2022-09-11T10:01:00;24.6;96.0
22676;DHT22;12521;43.310;21.876;2022-09-11T10:05:44;24.6;96.0
22676;DHT22;12521;43.310;21.876;2022-09-11T10:10:35;27.0;96.0
22676;DHT22;12521;43.310;21.876;2022-09-11T10:15:22;27.0;96.0
22676;DHT22;12521;43.310;21.876;2022-09-11T10:20:25;27.0;96.0
22676;DHT22;12521;43.310;21.876;2022-09-11T10:25:14;27.0;96.0
22676;DHT22;12521;43.310;21.876;2022-09-11T10:29:58;27.1;96.0
22676;DHT22;12521;43.310;21.876;2022-09-11T10:34:39;27.1;96.0
22676;DHT22;12521;43.310;21.876;2022-09-11T10:39:25;28.0;95.0
22676;DHT22;12521;43.310;21.876;2022-09-11T10:44:17;28.0;95.0
22676;DHT22;12521;43.310;21.876;2022-09-11T10:49:13;28.9;94.0
22676;DHT22;12521;43.310;21.876;2022-09-11T10:54:38;28.9;94.0
22676;DHT22;12521;43.310;21.876;2022-09-11T11:00:05;30.0;91.0
22676;DHT22;12521;43.310;21.876;2022-09-11T11:05:06;30.0;91.0
22676;DHT22;12521;43.310;21.876;2022-09-11T11:10:34;31.1;87.0
22676;DHT22;12521;43.310;21.876;2022-09-11T11:15:49;31.1;87.0
22676;DHT22;12521;43.310;21.876;2022-09-11T11:20:56;29.8;88.0
22676;DHT22;12521;43.310;21.876;2022-09-11T11:26:09;29.8;88.0
22676;DHT22;12521;43.310;21.876;2022-09-11T11:31:25;28.5;89.0
22676;DHT22;12521;43.310;21.876;2022-09-11T11:36:25;28.5;89.0
22676;DHT22;12521;43.310;21.876;2022-09-11T11:41:21;29.4;89.0
22676;DHT22;12521;43.310;21.876;2022-09-11T11:46:16;29.4;89.0
22676;DHT22;12521;43.310;21.876;2022-09-11T11:51:06;30.3;89.0
22676;DHT22;12521;43.310;21.876;2022-09-11T11:56:14;30.3;89.0
22676;DHT22;12521;43.310;21.876;2022-09-11T12:01:21;30.7;86.0
22676;DHT22;12521;43.310;21.876;2022-09-11T12:06:07;30.7;86.0
22676;DHT22;12521;43.310;21.876;2022-09-11T12:11:03;31.1;84.0
22676;DHT22;12521;43.310;21.876;2022-09-11T12:16:14;31.1;84.0
22676;DHT22;12521;43.310;21.876;2022-09-11T12:22:05;30.4;83.0
22676;DHT22;12521;43.310;21.876;2022-09-11T12:28:08;30.4;83.0
22676;DHT22;12521;43.310;21.876;2022-09-11T12:33:00;29.6;82.0
22676;DHT22;12521;43.310;21.876;2022-09-11T12:37:40;29.6;82.0
22676;DHT22;12521;43.310;21.876;2022-09-11T12:43:27;29.1;83.0
22676;DHT22;12521;43.310;21.876;2022-09-11T12:48:41;28.6;84.0
22676;DHT22;12521;43.310;21.876;2022-09-11T12:53:36;28.6;84.0
22676;DHT22;12521;43.310;21.876;2022-09-11T12:58:36;27.8;85.0
22676;DHT22;12521;43.310;21.876;2022-09-11T13:03:26;27.8;85.0
22676;DHT22;12521;43.310;21.876;2022-09-11T13:08:21;27.0;87.0
22676;DHT22;12521;43.310;21.876;2022-09-11T13:13:42;27.0;87.0
22676;DHT22;12521;43.310;21.876;2022-09-11T13:18:34;26.6;88.0
22676;DHT22;12521;43.310;21.876;2022-09-11T13:23:16;26.6;88.0
22676;DHT22;12521;43.310;21.876;2022-09-11T13:28:00;26.6;88.0
22676;DHT22;12521;43.310;21.876;2022-09-11T13:32:48;26.1;88.0
22676;DHT22;12521;43.310;21.876;2022-09-11T13:38:01;26.1;88.0
22676;DHT22;12521;43.310;21.876;2022-09-11T13:42:55;26.0;90.0
22676;DHT22;12521;43.310;21.876;2022-09-11T13:47:40;26.0;90.0
22676;DHT22;12521;43.310;21.876;2022-09-11T13:52:25;25.8;91.0
22676;DHT22;12521;43.310;21.876;2022-09-11T13:57:18;25.8;91.0
22676;DHT22;12521;43.310;21.876;2022-09-11T14:01:59;25.2;94.0
22676;DHT22;12521;43.310;21.876;2022-09-11T14:06:36;25.2;94.0
22676;DHT22;12521;43.310;21.876;2022-09-11T14:11:28;24.6;96.0
22676;DHT22;12521;43.310;21.876;2022-09-11T14:16:26;24.6;96.0
22676;DHT22;12521;43.310;21.876;2022-09-11T14:21:20;23.8;96.0
22676;DHT22;12521;43.310;21.876;2022-09-11T14:26:19;23.8;96.0
22676;DHT22;12521;43.310;21.876;2022-09-11T14:31:08;23.1;96.0
22676;DHT22;12521;43.310;21.876;2022-09-11T14:36:03;23.1;96.0
22676;DHT22;12521;43.310;21.876;2022-09-11T14:41:04;22.3;96.0
22676;DHT22;12521;43.310;21.876;2022-09-11T14:45:42;22.3;96.0
22676;DHT22;12521;43.310;21.876;2022-09-11T14:50:19;21.5;96.0
22676;DHT22;12521;43.310;21.876;2022-09-11T14:54:56;21.5;96.0
22676;DHT22;12521;43.310;21.876;2022-09-11T14:59:33;20.9;96.0
22676;DHT22;12521;43.310;21.876;2022-09-11T15:04:21;20.9;96.0
22676;DHT22;12521;43.310;21.876;2022-09-11T15:08:58;20.3;96.0
22676;DHT22;12521;43.310;21.876;2022-09-11T15:13:34;20.3;96.0
22676;DHT22;12521;43.310;21.876;2022-09-11T15:18:11;20.0;96.0
22676;DHT22;12521;43.310;21.876;2022-09-11T15:22:48;20.0;96.0
22676;DHT22;12521;43.310;21.876;2022-09-11T15:27:26;20.0;96.0
22676;DHT22;12521;43.310;21.876;2022-09-11T15:32:04;19.8;96.0
22676;DHT22;12521;43.310;21.876;2022-09-11T15:36:42;19.8;96.0
22676;DHT22;12521;43.310;21.876;2022-09-11T15:41:20;19.8;96.0
22676;DHT22;12521;43.310;21.876;2022-09-11T15:45:58;19.8;96.0
22676;DHT22;12521;43.310;21.876;2022-09-11T15:50:35;19.7;96.0
22676;DHT22;12521;43.310;21.876;2022-09-11T15:55:12;19.7;96.0
22676;DHT22;12521;43.310;21.876;2022-09-11T15:59:48;19.6;96.0
22676;DHT22;12521;43.310;21.876;2022-09-11T16:04:29;19.6;96.0
22676;DHT22;12521;43.310;21.876;2022-09-11T16:09:16;19.5;96.0
22676;DHT22;12521;43.310;21.876;2022-09-11T16:14:02;19.5;96.0
22676;DHT22;12521;43.310;21.876;2022-09-11T16:18:39;19.4;96.0
22676;DHT22;12521;43.310;21.876;2022-09-11T16:23:16;19.4;96.0
22676;DHT22;12521;43.310;21.876;2022-09-11T16:27:56;19.4;96.0
22676;DHT22;12521;43.310;21.876;2022-09-11T16:32:33;19.4;96.0
22676;DHT22;12521;43.310;21.876;2022-09-11T16:37:10;19.4;96.0
22676;DHT22;12521;43.310;21.876;2022-09-11T16:41:46;19.4;96.0
22676;DHT22;12521;43.310;21.876;2022-09-11T16:46:26;19.4;96.0
22676;DHT22;12521;43.310;21.876;2022-09-11T16:51:05;19.3;96.0
22676;DHT22;12521;43.310;21.876;2022-09-11T16:55:42;19.3;96.0
22676;DHT22;12521;43.310;21.876;2022-09-11T17:00:19;19.4;96.0
22676;DHT22;12521;43.310;21.876;2022-09-11T17:04:55;19.4;96.0
22676;DHT22;12521;43.310;21.876;2022-09-11T17:09:31;19.4;96.0
22676;DHT22;12521;43.310;21.876;2022-09-11T17:14:08;19.4;96.0
22676;DHT22;12521;43.310;21.876;2022-09-11T17:18:45;19.4;96.0
22676;DHT22;12521;43.310;21.876;2022-09-11T17:23:23;19.4;96.0
22676;DHT22;12521;43.310;21.876;2022-09-11T17:28:01;19.4;96.0
22676;DHT22;12521;43.310;21.876;2022-09-11T17:32:38;19.3;96.0
22676;DHT22;12521;43.310;21.876;2022-09-11T17:37:16;19.3;96.0
22676;DHT22;12521;43.310;21.876;2022-09-11T17:41:53;19.3;96.0
22676;DHT22;12521;43.310;21.876;2022-09-11T17:46:29;19.3;96.0
22676;DHT22;12521;43.310;21.876;2022-09-11T17:51:12;19.3;96.0
22676;DHT22;12521;43.310;21.876;2022-09-11T17:56:01;19.3;96.0
22676;DHT22;12521;43.310;21.876;2022-09-11T18:00:43;19.2;96.0
22676;DHT22;12521;43.310;21.876;2022-09-11T18:05:20;19.2;96.0
22676;DHT22;12521;43.310;21.876;2022-09-11T18:09:57;19.0;96.0
22676;DHT22;12521;43.310;21.876;2022-09-11T18:14:39;19.0;96.0
22676;DHT22;12521;43.310;21.876;2022-09-11T18:19:18;19.0;96.0
22676;DHT22;12521;43.310;21.876;2022-09-11T18:23:56;19.0;96.0
22676;DHT22;12521;43.310;21.876;2022-09-11T18:28:33;18.9;96.0
22676;DHT22;12521;43.310;21.876;2022-09-11T18:33:13;18.9;96.0
22676;DHT22;12521;43.310;21.876;2022-09-11T18:37:52;18.9;96.0
22676;DHT22;12521;43.310;21.876;2022-09-11T18:42:30;18.8;96.0
22676;DHT22;12521;43.310;21.876;2022-09-11T18:47:06;18.8;96.0
22676;DHT22;12521;43.310;21.876;2022-09-11T18:51:44;18.8;96.0
22676;DHT22;12521;43.310;21.876;2022-09-11T18:56:28;18.8;96.0
22676;DHT22;12521;43.310;21.876;2022-09-11T19:01:16;18.6;96.0
22676;DHT22;12521;43.310;21.876;2022-09-11T19:06:02;18.6;96.0
22676;DHT22;12521;43.310;21.876;2022-09-11T19:10:47;18.5;96.0
22676;DHT22;12521;43.310;21.876;2022-09-11T19:15:23;18.5;96.0
22676;DHT22;12521;43.310;21.876;2022-09-11T19:20:01;18.6;96.0
22676;DHT22;12521;43.310;21.876;2022-09-11T19:24:38;18.6;96.0
22676;DHT22;12521;43.310;21.876;2022-09-11T19:29:14;18.6;96.0
22676;DHT22;12521;43.310;21.876;2022-09-11T19:33:53;18.6;96.0
22676;DHT22;12521;43.310;21.876;2022-09-11T19:38:35;18.4;96.0
22676;DHT22;12521;43.310;21.876;2022-09-11T19:43:11;18.4;96.0
22676;DHT22;12521;43.310;21.876;2022-09-11T19:47:48;18.4;96.0
22676;DHT22;12521;43.310;21.876;2022-09-11T19:52:24;18.2;96.0
22676;DHT22;12521;43.310;21.876;2022-09-11T19:57:00;18.2;96.0
22676;DHT22;12521;43.310;21.876;2022-09-11T20:01:37;18.0;96.0
22676;DHT22;12521;43.310;21.876;2022-09-11T20:06:21;18.0;96.0
22676;DHT22;12521;43.310;21.876;2022-09-11T20:11:06;17.7;96.0
22676;DHT22;12521;43.310;21.876;2022-09-11T20:15:47;17.7;96.0
22676;DHT22;12521;43.310;21.876;2022-09-11T20:20:24;17.6;96.0
22676;DHT22;12521;43.310;21.876;2022-09-11T20:25:01;17.6;96.0
22676;DHT22;12521;43.310;21.876;2022-09-11T20:29:38;17.6;96.0
22676;DHT22;12521;43.310;21.876;2022-09-11T20:34:18;17.6;96.0
22676;DHT22;12521;43.310;21.876;2022-09-11T20:38:58;17.5;96.0
22676;DHT22;12521;43.310;21.876;2022-09-11T20:43:36;17.5;96.0
22676;DHT22;12521;43.310;21.876;2022-09-11T20:48:16;17.5;96.0
22676;DHT22;12521;43.310;21.876;2022-09-11T20:52:53;17.4;96.0
22676;DHT22;12521;43.310;21.876;2022-09-11T20:57:31;17.4;96.0
22676;DHT22;12521;43.310;21.876;2022-09-11T21:02:11;17.2;96.0
22676;DHT22;12521;43.310;21.876;2022-09-11T21:06:50;17.2;96.0
22676;DHT22;12521;43.310;21.876;2022-09-11T21:11:30;17.0;96.0
22676;DHT22;12521;43.310;21.876;2022-09-11T21:16:14;17.0;96.0
22676;DHT22;12521;43.310;21.876;2022-09-11T21:20:55;16.8;96.0
22676;DHT22;12521;43.310;21.876;2022-09-11T21:25:38;16.8;96.0
22676;DHT22;12521;43.310;21.876;2022-09-11T21:30:16;16.7;96.0
22676;DHT22;12521;43.310;21.876;2022-09-11T21:34:53;16.7;96.0
22676;DHT22;12521;43.310;21.876;2022-09-11T21:39:30;16.5;96.0
22676;DHT22;12521;43.310;21.876;2022-09-11T21:44:07;16.5;96.0
22676;DHT22;12521;43.310;21.876;2022-09-11T21:48:44;16.4;96.0
22676;DHT22;12521;43.310;21.876;2022-09-11T21:53:21;16.4;96.0
22676;DHT22;12521;43.310;21.876;2022-09-11T21:57:58;16.4;96.0
22676;DHT22;12521;43.310;21.876;2022-09-11T22:02:34;16.4;96.0
22676;DHT22;12521;43.310;21.876;2022-09-11T22:07:11;16.4;96.0
22676;DHT22;12521;43.310;21.876;2022-09-11T22:11:48;16.3;96.0
22676;DHT22;12521;43.310;21.876;2022-09-11T22:16:24;16.3;96.0
22676;DHT22;12521;43.310;21.876;2022-09-11T22:21:02;16.2;96.0
22676;DHT22;12521;43.310;21.876;2022-09-11T22:25:38;16.2;96.0
22676;DHT22;12521;43.310;21.876;2022-09-11T22:30:15;16.2;96.0
22676;DHT22;12521;43.310;21.876;2022-09-11T22:34:52;16.2;96.0
22676;DHT22;12521;43.310;21.876;2022-09-11T22:39:29;16.1;96.0
22676;DHT22;12521;43.310;21.876;2022-09-11T22:44:08;16.1;96.0
22676;DHT22;12521;43.310;21.876;2022-09-11T22:48:46;16.0;96.0
22676;DHT22;12521;43.310;21.876;2022-09-11T22:53:24;16.0;96.0
22676;DHT22;12521;43.310;21.876;2022-09-11T22:58:03;16.0;96.0
22676;DHT22;12521;43.310;21.876;2022-09-11T23:02:40;16.0;96.0
22676;DHT22;12521;43.310;21.876;2022-09-11T23:07:17;16.0;96.0
22676;DHT22;12521;43.310;21.876;2022-09-11T23:11:53;16.0;96.0
22676;DHT22;12521;43.310;21.876;2022-09-11T23:16:30;16.0;96.0
22676;DHT22;12521;43.310;21.876;2022-09-11T23:21:09;16.0;96.0
22676;DHT22;12521;43.310;21.876;2022-09-11T23:25:51;16.0;96.0
22676;DHT22;12521;43.310;21.876;2022-09-11T23:30:28;15.9;96.0
22676;DHT22;12521;43.310;21.876;2022-09-11T23:35:07;15.9;96.0
22676;DHT22;12521;43.310;21.876;2022-09-11T23:39:46;15.8;96.0
22676;DHT22;12521;43.310;21.876;2022-09-11T23:44:22;15.8;96.0
22676;DHT22;12521;43.310;21.876;2022-09-11T23:48:59;15.6;96.0
22676;DHT22;12521;43.310;21.876;2022-09-11T23:53:40;15.6;96.0
22676;DHT22;12521;43.310;21.876;2022-09-11T23:58:19;15.6;96.0
